首页
METAR-TAF:

METAR-TAF

机场 :

Burwash, 育康省, 加拿大

纬度: 61-22N, 经度: 139-02W, 海拔: 807米

当前天气观测

该预报发布于17分钟前的14:33 UTC
风速8节,风向西转西北
温度 -14°C
湿度 66%
气压 1004 hPa
能見度: 14.5公里
阴天层高于4000英尺
小雪

METAR: CYDB 231433Z AUTO 30008KT 9SM -SN OVC040 M14/M19 A2964 RMK SLP097

时间: 06:50 (14:50 UTC)

预报

该预报发布于3小时和12分钟前的11:38 UTC
预报有效从23日的 12点(UTC)到 23日的 24点(UTC)
风速3节,风向多变
能見度: 9.7公里
散云层高于1500英尺
多云层高于4000英尺
小雪
短暂存在
从 23日的 12点(UTC)到 23日的 15点(UTC)
能見度: 3.2公里
多云层高于1500英尺
阴天层高于4000英尺
小雪
从 23日的 1500点(UTC)
风速10节,风向西转西北
能見度: 1.6公里
多云层高于1000英尺
阴天层高于3000英尺
小雪
短暂存在
从 23日的 15点(UTC)到 23日的 24点(UTC)
能見度: 4.8公里
散云层高于1000英尺
阴天层高于3000英尺
小雪

TAF: CYDB 231138Z 2312/2324 VRB03KT 6SM -SN SCT015 BKN040 TEMPO 2312/2315 2SM -SN BKN015 OVC040 FM231500 30010KT 1SM -SN BKN010 OVC030 TEMPO 2315/2324 3SM -SN SCT010 OVC030 RMK FCST BASED ON AUTO OBS. NXT FCST BY 231800Z

超过4000个机场的气象观测和天气预报(METAR&TAF报告)。

可查询的气象台以黄色和红色小点在地图上表示。

将鼠标移到小点上方,可查看气象台名称。

然后点击查看天气观测和预报。

如需切换地图:点击带黑十字的绿色按钮放大地图;点击带横线的绿色按钮缩小地图;或者点击绿色箭头查看邻近地区的地图。


METAR-TAF: